Time;durP1;ratioP1;P1;durP2;ratioP2;P2;SDS_P1;SDS_P2;PMS_P1;PMS_P2;Temp;Humidity;BMP_temperature;BMP_pressure;BME280_temperature;BME280_humidity;BME280_pressure;Samples;Min_cycle;Max_cycle;Signal;HPM_P1;HPM_P2
2021/08/24 00:00:01;;;;;;;10.60;7.73;;;;;;;16.05;74.65;102975.56;5083265;28;20263;-75
2021/08/24 00:02:28;;;;;;;10.17;7.50;;;;;;;15.96;75.16;102977.63;5087332;28;20217;-75
2021/08/24 00:04:54;;;;;;;8.53;7.63;;;;;;;15.92;75.22;102967.47;5084829;28;20737;-75
2021/08/24 00:07:21;;;;;;;9.77;7.93;;;;;;;16.04;74.96;102966.63;5083706;28;20214;-76
2021/08/24 00:09:48;;;;;;;8.70;7.83;;;;;;;16.00;75.12;102973.47;5086638;28;20238;-76
2021/08/24 00:12:14;;;;;;;10.30;7.80;;;;;;;15.90;75.51;102962.28;5085925;28;20249;-75
2021/08/24 00:14:41;;;;;;;12.10;8.33;;;;;;;15.81;76.11;102971.59;5084949;28;20837;-76
2021/08/24 00:17:09;;;;;;;11.73;8.30;;;;;;;15.91;75.65;102972.03;5083610;28;20244;-76
2021/08/24 00:19:35;;;;;;;12.13;8.87;;;;;;;15.90;75.42;102967.66;5084310;28;20218;-75
2021/08/24 00:22:01;;;;;;;11.83;9.23;;;;;;;15.91;75.76;102968.50;5081446;28;20210;-75
2021/08/24 00:24:28;;;;;;;11.97;9.53;;;;;;;16.12;74.53;102970.97;5082888;28;20247;-75
2021/08/24 00:26:55;;;;;;;13.87;10.30;;;;;;;16.02;75.55;102957.94;5082518;28;20221;-75
2021/08/24 00:29:21;;;;;;;12.27;9.03;;;;;;;16.01;75.30;102963.53;5085047;28;20213;-75
2021/08/24 00:31:47;;;;;;;13.20;9.90;;;;;;;16.02;75.19;102957.94;5083116;28;20540;-74
2021/08/24 00:34:15;;;;;;;12.37;9.37;;;;;;;16.15;74.55;102963.31;5083243;28;20810;-75
2021/08/24 00:36:42;;;;;;;13.20;9.50;;;;;;;16.23;74.26;102966.81;5084562;28;20459;-75
2021/08/24 00:39:08;;;;;;;13.73;9.67;;;;;;;16.22;74.18;102968.69;5080636;28;20240;-75
2021/08/24 00:41:36;;;;;;;12.10;10.00;;;;;;;16.24;74.35;102971.19;5083943;28;20722;-75
2021/08/24 00:44:03;;;;;;;12.87;10.33;;;;;;;15.94;75.99;102968.06;5083215;28;20210;-75
2021/08/24 00:46:33;;;;;;;14.77;11.37;;;;;;;15.69;77.09;102975.94;5086579;28;20477;-75
2021/08/24 00:49:02;;;;;;;12.23;10.40;;;;;;;15.63;77.42;102974.06;5087129;28;20633;-75
2021/08/24 00:51:31;;;;;;;13.57;10.30;;;;;;;15.74;77.15;102982.34;5082787;28;20240;-75
2021/08/24 00:53:57;;;;;;;14.03;10.73;;;;;;;15.64;77.32;102968.47;5083464;28;20228;-75
2021/08/24 00:56:24;;;;;;;13.23;10.73;;;;;;;15.90;76.19;102975.75;5083843;28;20270;-75
2021/08/24 00:58:51;;;;;;;14.90;10.30;;;;;;;15.87;76.27;102970.75;5082446;28;20769;-75
2021/08/24 01:01:17;;;;;;;17.07;11.80;;;;;;;15.86;76.19;102978.00;5084378;28;20262;-75
2021/08/24 01:03:45;;;;;;;14.70;11.20;;;;;;;15.96;75.69;102979.47;5082637;28;20215;-75
2021/08/24 01:06:18;;;;;;;13.50;10.43;;;;;;;15.81;76.72;102974.28;5084229;28;20211;-75
2021/08/24 01:08:52;;;;;;;16.13;11.53;;;;;;;15.85;76.33;102970.97;5083402;28;20281;-75
2021/08/24 01:11:24;;;;;;;17.03;12.03;;;;;;;15.94;76.14;102973.47;5082496;28;20233;-75
2021/08/24 01:13:59;;;;;;;13.50;11.73;;;;;;;15.86;76.43;102975.31;5083267;28;20282;-75
2021/08/24 01:16:34;;;;;;;14.90;10.53;;;;;;;15.92;76.28;102980.94;5081519;28;20261;-75
2021/08/24 01:19:10;;;;;;;18.00;13.30;;;;;;;15.87;76.31;102976.16;5085252;28;20669;-75
2021/08/24 01:21:56;;;;;;;13.10;11.37;;;;;;;15.76;77.17;102977.59;5081295;28;21066;-75
2021/08/24 01:24:26;;;;;;;16.00;11.87;;;;;;;15.88;76.59;102983.22;5078951;28;20333;-75
2021/08/24 01:26:58;;;;;;;16.43;11.57;;;;;;;15.93;76.29;102972.63;5082525;28;20212;-75
2021/08/24 01:30:01;;;;;;;15.93;11.63;;;;;;;15.92;76.24;102976.38;5081980;28;20619;-76
2021/08/24 01:32:46;;;;;;;16.27;12.17;;;;;;;15.79;77.05;102981.75;5083698;28;21158;-75
2021/08/24 01:35:23;;;;;;;19.23;12.00;;;;;;;15.69;77.19;102970.53;5083564;28;20284;-75
2021/08/24 01:38:02;;;;;;;15.23;12.40;;;;;;;15.59;77.69;102987.06;5083746;28;20205;-75
2021/08/24 01:40:36;;;;;;;15.47;12.20;;;;;;;15.68;77.36;102985.88;5081621;28;20595;-75
2021/08/24 01:43:04;;;;;;;16.40;12.13;;;;;;;15.61;77.54;102982.31;5083447;28;20206;-76
2021/08/24 01:45:37;;;;;;;15.50;11.53;;;;;;;15.66;77.37;102982.56;5084229;28;20217;-75
2021/08/24 01:48:09;;;;;;;17.63;13.23;;;;;;;15.64;77.41;102990.03;5084827;28;20217;-75
2021/08/24 01:50:38;;;;;;;16.67;11.67;;;;;;;15.85;76.26;102994.41;5081993;28;20356;-75
2021/08/24 01:53:08;;;;;;;18.97;12.90;;;;;;;15.88;76.24;102991.31;5083139;28;20280;-75
2021/08/24 01:55:40;;;;;;;16.47;12.13;;;;;;;15.67;77.55;102996.88;5083125;28;20217;-75
2021/08/24 01:58:12;;;;;;;17.37;12.87;;;;;;;15.73;77.18;102991.47;5081778;28;20209;-75
2021/08/24 02:00:41;;;;;;;16.83;12.90;;;;;;;15.52;78.17;102997.84;5081178;28;20202;-75
2021/08/24 02:03:11;;;;;;;16.70;12.67;;;;;;;15.67;77.77;102994.16;5082845;28;20550;-75
2021/08/24 02:05:43;;;;;;;18.80;13.17;;;;;;;15.68;77.52;102998.53;5080704;28;20259;-75
2021/08/24 02:08:13;;;;;;;15.73;12.23;;;;;;;15.73;77.04;102993.34;5080985;28;20279;-75
2021/08/24 02:10:41;;;;;;;14.40;11.87;;;;;;;15.70;77.03;102991.88;5080566;28;20217;-75
2021/08/24 02:13:08;;;;;;;15.43;12.90;;;;;;;15.73;76.90;102993.34;5084445;28;20685;-75
2021/08/24 02:15:37;;;;;;;13.40;11.87;;;;;;;15.77;76.44;102992.75;5082756;28;20230;-75
2021/08/24 02:18:06;;;;;;;17.37;11.27;;;;;;;15.76;76.45;102998.34;5079581;28;20278;-75
2021/08/24 02:20:35;;;;;;;832.63;391.13;;;;;;;15.57;77.20;102997.22;5084177;28;20210;-75
2021/08/24 02:23:04;;;;;;;16.93;12.17;;;;;;;15.46;78.09;103001.31;5083995;28;20243;-75
2021/08/24 02:25:37;;;;;;;16.67;13.23;;;;;;;15.25;78.86;102999.63;5084513;28;20209;-74
2021/08/24 02:28:05;;;;;;;16.40;12.07;;;;;;;15.30;78.87;102997.13;5079316;28;20238;-74
2021/08/24 02:30:33;;;;;;;16.33;12.17;;;;;;;15.41;77.88;102995.72;5081167;28;20233;-75
2021/08/24 02:33:00;;;;;;;17.97;11.93;;;;;;;15.44;78.03;103000.69;5081216;28;20211;-75
2021/08/24 02:35:29;;;;;;;14.77;12.23;;;;;;;15.43;78.26;103000.91;5083945;28;20213;-75
2021/08/24 02:37:59;;;;;;;16.10;12.07;;;;;;;15.44;78.01;103000.69;5081194;28;20630;-75
2021/08/24 02:40:35;;;;;;;15.77;11.67;;;;;;;15.28;78.88;103004.59;5080796;28;20767;-74
2021/08/24 02:43:09;;;;;;;17.63;12.20;;;;;;;15.43;78.28;103003.59;5081668;28;20205;-75
2021/08/24 02:45:38;;;;;;;16.23;11.90;;;;;;;15.37;78.42;103009.78;5082120;28;20218;-74
2021/08/24 02:48:07;;;;;;;19.63;12.70;;;;;;;15.39;78.78;103007.75;5082488;28;20270;-74
2021/08/24 02:50:33;;;;;;;16.90;12.37;;;;;;;15.42;78.96;103007.31;5079516;28;20237;-74
2021/08/24 02:53:00;;;;;;;18.50;12.77;;;;;;;15.48;78.54;103006.50;5082244;28;20239;-74
2021/08/24 02:55:27;;;;;;;16.40;11.97;;;;;;;15.43;78.73;103009.00;5082326;28;20660;-74
2021/08/24 02:57:55;;;;;;;14.57;12.00;;;;;;;15.50;78.42;103002.59;5081933;28;20222;-75
2021/08/24 03:00:21;;;;;;;15.97;12.50;;;;;;;15.44;78.49;103000.69;5081504;28;20210;-75
2021/08/24 03:02:47;;;;;;;20.30;12.57;;;;;;;15.55;78.69;102994.72;5081835;28;20217;-75
2021/08/24 03:05:14;;;;;;;17.77;13.00;;;;;;;15.53;78.33;102998.66;5082126;28;20224;-75
2021/08/24 03:07:42;;;;;;;20.17;13.70;;;;;;;15.34;79.46;102994.84;5079647;28;20219;-75
2021/08/24 03:10:12;;;;;;;15.43;12.67;;;;;;;15.42;79.16;102992.00;5083377;28;20779;-75
2021/08/24 03:12:41;;;;;;;14.97;12.70;;;;;;;15.40;79.61;102990.53;5084253;28;20239;-74
2021/08/24 03:15:14;;;;;;;18.53;12.87;;;;;;;15.22;80.25;102999.16;5084206;28;20290;-74
2021/08/24 03:17:45;;;;;;;17.30;13.17;;;;;;;15.29;80.15;102995.47;5083611;28;20254;-75
2021/08/24 03:20:12;;;;;;;15.93;12.93;;;;;;;15.40;79.28;103002.16;5085551;28;20262;-75
2021/08/24 03:22:40;;;;;;;18.03;13.53;;;;;;;15.50;78.80;103002.59;5082413;28;20597;-74
2021/08/24 03:25:08;;;;;;;19.70;14.23;;;;;;;15.39;79.44;103002.34;5084043;28;20278;-75
2021/08/24 03:27:36;;;;;;;16.90;14.27;;;;;;;15.32;79.95;102996.94;5087959;28;20286;-75
2021/08/24 03:30:06;;;;;;;16.10;13.57;;;;;;;15.39;79.69;102992.41;5085372;28;20248;-75
2021/08/24 03:32:34;;;;;;;21.57;14.53;;;;;;;15.47;79.32;102986.81;5083955;28;20999;-75
2021/08/24 03:35:01;;;;;;;19.67;14.17;;;;;;;15.53;78.94;102991.41;5084188;28;20604;-75
2021/08/24 03:37:27;;;;;;;16.83;13.50;;;;;;;15.45;79.30;102996.13;5082728;28;20213;-75
2021/08/24 03:39:54;;;;;;;19.67;13.33;;;;;;;15.57;78.51;102994.53;5085930;28;20229;-75
2021/08/24 03:42:20;;;;;;;14.93;12.37;;;;;;;15.50;79.11;102996.34;5084888;28;20841;-75
2021/08/24 03:44:46;;;;;;;20.57;12.97;;;;;;;15.60;78.38;103000.34;5083269;28;20264;-75
2021/08/24 03:47:13;;;;;;;17.77;14.37;;;;;;;15.58;78.42;102993.47;5083442;28;20262;-75
2021/08/24 03:49:42;;;;;;;22.50;13.17;;;;;;;15.48;79.17;103001.13;5085390;28;20209;-75
2021/08/24 03:52:08;;;;;;;20.60;14.40;;;;;;;15.48;79.10;103004.63;5085634;28;20295;-74
2021/08/24 03:54:35;;;;;;;16.37;14.10;;;;;;;15.43;79.40;103007.13;5082322;28;20279;-74
2021/08/24 03:57:01;;;;;;;26.10;14.30;;;;;;;15.59;78.56;103001.41;5086155;28;20213;-74
2021/08/24 03:59:27;;;;;;;18.13;13.77;;;;;;;15.53;78.50;103004.88;5086011;28;20271;-74
2021/08/24 04:01:54;;;;;;;21.77;13.90;;;;;;;15.35;79.61;103009.97;5085290;28;20214;-74
2021/08/24 04:04:20;;;;;;;23.80;14.57;;;;;;;15.39;79.73;103008.56;5085847;28;20210;-74
2021/08/24 04:06:48;;;;;;;19.53;14.97;;;;;;;15.32;79.98;103011.22;5081487;28;20209;-74
2021/08/24 04:09:14;;;;;;;17.83;14.57;;;;;;;15.43;79.56;103012.50;5084937;28;20229;-74
2021/08/24 04:11:41;;;;;;;22.17;14.60;;;;;;;15.50;79.15;103016.06;5080782;28;20287;-74
2021/08/24 04:14:07;;;;;;;19.47;14.73;;;;;;;15.37;79.53;103016.00;5085475;28;20236;-74
2021/08/24 04:16:33;;;;;;;18.27;14.50;;;;;;;15.26;80.27;103022.00;5083366;28;20210;-74
2021/08/24 04:19:00;;;;;;;18.17;14.47;;;;;;;15.21;80.41;103019.88;5084231;28;20298;-74
2021/08/24 04:21:26;;;;;;;19.83;13.80;;;;;;;15.40;79.97;103028.25;5081513;28;20214;-74
2021/08/24 04:23:54;;;;;;;20.77;15.00;;;;;;;15.47;79.13;103021.00;5083636;28;20229;-74
2021/08/24 04:26:20;;;;;;;20.43;15.20;;;;;;;15.58;78.26;103026.66;5080953;28;20216;-74
2021/08/24 04:28:47;;;;;;;18.47;13.47;;;;;;;15.38;79.33;103024.94;5083503;28;20287;-74
2021/08/24 04:31:18;;;;;;;21.43;15.10;;;;;;;15.45;79.44;103025.78;5088127;28;20782;-82
2021/08/24 04:33:45;;;;;;;18.90;14.33;;;;;;;15.47;79.33;103032.63;5091187;28;20216;-83
2021/08/24 04:36:11;;;;;;;20.70;14.13;;;;;;;15.52;79.17;103021.25;5091708;28;20604;-82
2021/08/24 04:38:38;;;;;;;17.60;13.67;;;;;;;15.48;79.58;103025.38;5089670;28;20233;-82
2021/08/24 04:41:07;;;;;;;18.73;13.83;;;;;;;15.30;80.35;103028.63;5092350;28;20209;-83
2021/08/24 04:43:33;;;;;;;20.90;14.23;;;;;;;15.66;78.75;103032.94;5097123;28;20244;-83
2021/08/24 04:46:00;;;;;;;20.57;13.00;;;;;;;15.60;79.09;103026.47;5092823;28;20213;-82
2021/08/24 04:48:27;;;;;;;17.60;13.50;;;;;;;15.48;79.56;103034.28;5094359;28;20226;-83
2021/08/24 04:50:53;;;;;;;17.37;12.90;;;;;;;15.57;79.35;103029.56;5088499;28;20209;-83
2021/08/24 04:53:20;;;;;;;16.53;12.77;;;;;;;15.68;78.70;103033.56;5091077;28;20225;-83
2021/08/24 04:55:46;;;;;;;21.37;13.27;;;;;;;15.55;79.16;103031.63;5095737;28;20661;-83
2021/08/24 04:58:14;;;;;;;17.43;12.40;;;;;;;15.44;80.07;103038.41;5091984;28;20216;-83
2021/08/24 05:00:40;;;;;;;18.13;12.20;;;;;;;15.56;79.79;103042.19;5095965;28;20217;-83
2021/08/24 05:03:07;;;;;;;18.90;13.23;;;;;;;15.61;79.16;103041.59;5096847;28;20217;-83
2021/08/24 05:05:33;;;;;;;18.20;12.57;;;;;;;15.68;79.16;103041.63;5094403;28;20209;-83
2021/08/24 05:08:00;;;;;;;18.53;12.10;;;;;;;15.67;79.40;103039.97;5096639;28;20239;-83
2021/08/24 05:10:27;;;;;;;19.17;12.43;;;;;;;15.74;79.38;103032.72;5091105;28;20318;-83
2021/08/24 05:12:54;;;;;;;16.63;12.33;;;;;;;16.01;78.11;103036.34;5092547;28;20250;-83
2021/08/24 05:15:22;;;;;;;16.97;12.80;;;;;;;15.83;78.75;103037.72;5089554;28;20237;-84
2021/08/24 05:17:49;;;;;;;14.70;12.00;;;;;;;15.73;79.39;103039.16;5087574;28;20241;-83
2021/08/24 05:20:17;;;;;;;16.30;12.07;;;;;;;15.93;79.03;103040.03;5095843;28;20205;-83
2021/08/24 05:22:44;;;;;;;18.00;12.50;;;;;;;15.80;79.46;103038.16;5095952;28;20215;-84
2021/08/24 05:25:13;;;;;;;18.27;12.30;;;;;;;16.15;78.02;103035.31;5094704;28;20241;-83
2021/08/24 05:27:40;;;;;;;16.80;12.73;;;;;;;16.03;78.51;103031.56;5092908;28;20414;-84
2021/08/24 05:30:10;;;;;;;17.77;11.80;;;;;;;16.17;78.39;103034.06;5095491;28;20225;-83
2021/08/24 05:32:37;;;;;;;16.17;12.07;;;;;;;16.25;77.90;103037.56;5091962;28;20589;-84
2021/08/24 05:35:04;;;;;;;14.33;11.27;;;;;;;16.28;78.02;103034.47;5094584;28;20617;-84
2021/08/24 05:37:31;;;;;;;20.47;12.37;;;;;;;16.34;77.83;103047.13;5093907;28;20210;-84
2021/08/24 05:39:57;;;;;;;15.77;11.27;;;;;;;16.33;77.83;103049.00;5090805;28;20288;-83
2021/08/24 05:42:24;;;;;;;16.53;11.07;;;;;;;16.54;76.92;103045.28;5094046;28;20220;-83
2021/08/24 05:44:50;;;;;;;16.90;10.93;;;;;;;16.60;77.00;103048.97;5091358;28;20229;-83
2021/08/24 05:47:17;;;;;;;15.47;10.97;;;;;;;16.72;76.99;103050.88;5095711;28;20676;-83
2021/08/24 05:49:44;;;;;;;14.10;10.50;;;;;;;16.79;76.40;103053.56;5095811;28;20335;-84
2021/08/24 05:52:11;;;;;;;15.03;10.30;;;;;;;16.96;76.04;103059.34;5090196;28;20558;-84
2021/08/24 05:54:38;;;;;;;16.27;10.80;;;;;;;17.10;75.81;103057.44;5090380;28;20236;-84
2021/08/24 05:57:05;;;;;;;12.83;9.87;;;;;;;17.36;75.03;103060.06;5092656;28;20215;-84
2021/08/24 05:59:32;;;;;;;13.60;10.00;;;;;;;17.57;73.86;103061.63;5095564;28;20341;-84
2021/08/24 06:01:58;;;;;;;12.63;10.03;;;;;;;17.59;74.58;103067.66;5092265;28;20203;-84
2021/08/24 06:04:26;;;;;;;12.53;9.70;;;;;;;17.63;74.11;103068.88;5093560;28;20626;-84
2021/08/24 06:06:54;;;;;;;12.33;10.30;;;;;;;17.55;75.33;103066.44;5090999;28;21093;-84
2021/08/24 06:09:21;;;;;;;13.43;9.60;;;;;;;17.86;74.13;103071.06;5096388;28;20238;-84
2021/08/24 06:11:50;;;;;;;10.63;9.53;;;;;;;17.28;75.02;103069.25;5094636;28;20296;-84
2021/08/24 06:14:17;;;;;;;10.17;9.10;;;;;;;17.47;74.73;103074.78;5090521;28;20297;-84
2021/08/24 06:16:44;;;;;;;11.17;7.97;;;;;;;17.69;74.23;103078.03;5088793;28;20220;-84
2021/08/24 06:19:11;;;;;;;10.97;9.27;;;;;;;17.80;73.70;103072.78;5090650;28;20255;-83
2021/08/24 06:21:39;;;;;;;12.43;8.87;;;;;;;18.05;73.00;103083.66;5093276;28;20214;-83
2021/08/24 06:24:07;;;;;;;9.93;8.00;;;;;;;17.98;73.64;103074.75;5087401;28;20717;-83
2021/08/24 06:26:34;;;;;;;9.97;8.67;;;;;;;18.03;73.15;103074.06;5090259;28;20232;-85
2021/08/24 06:29:00;;;;;;;9.00;7.17;;;;;;;18.31;72.25;103076.41;5090901;28;20290;-83
2021/08/24 06:31:28;;;;;;;11.63;8.47;;;;;;;18.32;71.88;103065.34;5090469;28;20219;-84
2021/08/24 06:33:55;;;;;;;10.50;7.63;;;;;;;18.16;72.35;103066.69;5091952;28;20212;-84
2021/08/24 06:36:23;;;;;;;7.53;6.67;;;;;;;18.28;72.09;103069.53;5089687;28;20647;-84
2021/08/24 06:38:50;;;;;;;11.97;6.90;;;;;;;18.45;71.99;103075.25;5089532;28;20236;-84
2021/08/24 06:41:19;;;;;;;9.37;7.50;;;;;;;18.60;71.07;103083.03;5092951;28;20269;-83
2021/08/24 06:43:45;;;;;;;9.67;7.20;;;;;;;18.74;70.74;103080.00;5090673;28;20218;-84
2021/08/24 06:46:12;;;;;;;9.43;7.27;;;;;;;18.51;71.49;103086.00;5096027;28;20216;-83
2021/08/24 06:48:38;;;;;;;10.27;7.07;;;;;;;18.51;71.63;103083.28;5094072;28;20221;-84
2021/08/24 06:51:05;;;;;;;9.33;7.23;;;;;;;18.46;72.77;103088.56;5095700;28;20214;-84
2021/08/24 06:53:32;;;;;;;7.70;6.27;;;;;;;18.80;71.09;103087.25;5092942;28;20240;-83
2021/08/24 06:55:58;;;;;;;9.73;7.07;;;;;;;19.09;69.44;103090.28;5093929;28;20217;-83
2021/08/24 06:58:26;;;;;;;10.67;7.23;;;;;;;18.79;70.96;103087.44;5095324;28;20714;-83
2021/08/24 07:00:53;;;;;;;9.77;6.97;;;;;;;19.00;69.63;103095.16;5096298;28;20217;-83
2021/08/24 07:03:20;;;;;;;10.33;7.03;;;;;;;18.95;70.74;103095.03;5096882;28;20212;-83
2021/08/24 07:05:49;;;;;;;8.53;7.43;;;;;;;18.60;70.19;103091.97;5095354;28;20248;-83
2021/08/24 07:08:15;;;;;;;9.03;7.37;;;;;;;18.95;70.49;103086.06;5092393;28;20314;-83
2021/08/24 07:10:42;;;;;;;11.50;7.50;;;;;;;19.10;69.27;103081.09;5093461;28;20210;-83
2021/08/24 07:13:08;;;;;;;9.70;6.70;;;;;;;19.61;68.30;103088.03;5096385;28;20237;-82
2021/08/24 07:15:36;;;;;;;9.03;7.03;;;;;;;19.96;67.48;103082.75;5094482;28;20218;-83
2021/08/24 07:18:03;;;;;;;9.20;8.13;;;;;;;20.11;66.69;103082.31;5094625;28;20244;-82
2021/08/24 07:20:30;;;;;;;7.60;6.80;;;;;;;20.08;67.16;103088.22;5095502;28;20202;-82
2021/08/24 07:22:57;;;;;;;11.20;8.50;;;;;;;20.20;66.71;103081.75;5094403;28;20232;-82
2021/08/24 07:25:26;;;;;;;8.50;7.67;;;;;;;20.18;66.45;103083.84;5094665;28;20313;-81
2021/08/24 07:27:52;;;;;;;9.27;7.90;;;;;;;20.45;66.03;103084.28;5094468;28;20254;-81
2021/08/24 07:30:19;;;;;;;10.87;7.53;;;;;;;19.94;67.00;103090.28;5095869;28;20304;-80
2021/08/24 07:32:48;;;;;;;9.00;7.97;;;;;;;19.57;67.67;103092.28;5092814;28;20224;-81
2021/08/24 07:35:15;;;;;;;9.77;8.27;;;;;;;19.74;66.85;103087.84;5095865;28;20220;-81
2021/08/24 07:37:41;;;;;;;11.17;8.87;;;;;;;19.78;66.54;103091.75;5093706;28;20205;-81
2021/08/24 07:40:10;;;;;;;11.37;6.97;;;;;;;20.05;65.89;103086.78;5091241;28;20240;-81
2021/08/24 07:42:36;;;;;;;8.70;7.77;;;;;;;19.85;66.80;103084.38;5097763;28;20207;-81
2021/08/24 07:45:04;;;;;;;11.53;7.80;;;;;;;20.02;66.13;103095.38;5093966;28;20220;-81
2021/08/24 07:47:30;;;;;;;8.40;6.13;;;;;;;19.96;65.93;103088.19;5094097;28;20296;-80
2021/08/24 07:49:58;;;;;;;8.43;6.00;;;;;;;19.75;66.88;103088.69;5095397;28;20232;-80
2021/08/24 07:52:24;;;;;;;7.83;5.93;;;;;;;20.03;66.71;103086.19;5090673;28;20258;-80
2021/08/24 07:54:51;;;;;;;6.70;6.10;;;;;;;20.25;65.50;103094.63;5090768;28;20266;-81
2021/08/24 07:57:17;;;;;;;8.93;5.73;;;;;;;20.24;65.01;103087.53;5092810;28;20749;-80
2021/08/24 07:59:45;;;;;;;11.03;5.90;;;;;;;20.06;66.05;103093.84;5091299;28;20218;-80
2021/08/24 08:02:15;;;;;;;7.67;5.53;;;;;;;20.12;65.55;103087.50;5089763;28;20637;-80
2021/08/24 08:04:41;;;;;;;9.67;6.57;;;;;;;20.01;65.93;103091.03;5093799;28;20231;-80
2021/08/24 08:07:09;;;;;;;10.37;5.67;;;;;;;20.20;65.09;103089.03;5093175;28;20214;-81
2021/08/24 08:09:36;;;;;;;8.57;6.17;;;;;;;19.63;67.37;103099.47;5094201;28;20244;-80
2021/08/24 08:12:03;;;;;;;9.53;6.60;;;;;;;19.73;67.83;103090.81;5095436;28;20205;-80
2021/08/24 08:14:30;;;;;;;12.37;6.73;;;;;;;19.61;66.62;103104.31;5091178;28;20271;-80
2021/08/24 08:16:56;;;;;;;10.67;6.97;;;;;;;19.74;66.64;103092.44;5094407;28;20206;-80
2021/08/24 08:19:23;;;;;;;10.80;6.40;;;;;;;19.61;66.92;103093.47;5093416;28;20205;-80
2021/08/24 08:21:49;;;;;;;10.43;6.70;;;;;;;19.42;67.69;103100.72;5092011;28;20282;-81
2021/08/24 08:24:17;;;;;;;9.77;6.80;;;;;;;19.44;68.46;103104.06;5092200;28;20287;-80
2021/08/24 08:26:43;;;;;;;10.80;6.57;;;;;;;19.91;67.44;103099.72;5093881;28;20249;-80
2021/08/24 08:29:11;;;;;;;8.10;6.27;;;;;;;20.22;66.15;103105.97;5091547;28;20688;-80
2021/08/24 08:31:39;;;;;;;9.40;6.50;;;;;;;19.78;66.56;103105.31;5091641;28;20242;-80
2021/08/24 08:34:06;;;;;;;7.10;5.77;;;;;;;19.80;66.33;103105.91;5091671;28;20229;-80
2021/08/24 08:36:33;;;;;;;8.13;5.70;;;;;;;20.17;65.88;103111.22;5096036;28;20221;-80
2021/08/24 08:38:59;;;;;;;9.23;5.40;;;;;;;20.38;63.72;103107.16;5093232;28;20247;-80
2021/08/24 08:41:32;;;;;;;8.67;5.47;;;;;;;20.33;65.27;103113.31;5094118;28;20565;-80
2021/08/24 08:44:01;;;;;;;8.30;4.83;;;;;;;20.41;64.16;103118.38;5098879;28;20232;-80
2021/08/24 08:46:35;;;;;;;7.73;5.10;;;;;;;20.46;63.25;103118.56;5093612;28;20221;-80
2021/08/24 08:49:09;;;;;;;9.70;5.47;;;;;;;20.52;63.82;103117.59;5094896;28;20870;-80
2021/08/24 08:51:42;;;;;;;7.47;4.30;;;;;;;20.51;64.04;103126.81;5093832;28;20734;-80
2021/08/24 08:54:18;;;;;;;7.73;4.97;;;;;;;20.33;64.33;103123.31;5094324;28;20238;-80
2021/08/24 08:56:50;;;;;;;8.97;5.53;;;;;;;19.96;65.95;103126.16;5092218;28;20630;-80
2021/08/24 08:59:19;;;;;;;8.43;5.10;;;;;;;20.32;64.19;103122.47;5094049;28;20222;-80
2021/08/24 09:01:50;;;;;;;9.33;5.23;;;;;;;20.47;63.76;103117.50;5090791;28;20209;-82
2021/08/24 09:04:19;;;;;;;9.23;4.37;;;;;;;20.68;63.34;103126.94;5092240;28;20231;-82
2021/08/24 09:06:46;;;;;;;7.07;4.83;;;;;;;20.39;64.09;103122.41;5092193;28;20631;-80
2021/08/24 09:09:13;;;;;;;8.10;4.50;;;;;;;20.74;64.00;103117.88;5093184;28;20228;-80
2021/08/24 09:11:44;;;;;;;6.33;5.23;;;;;;;20.72;64.01;103122.72;5092077;28;20617;-80
2021/08/24 09:14:18;;;;;;;5.70;4.23;;;;;;;20.81;62.84;103124.00;5094027;28;20462;-80
2021/08/24 09:16:49;;;;;;;6.73;3.97;;;;;;;20.94;62.05;103128.38;5091725;28;20271;-80
2021/08/24 09:19:18;;;;;;;6.57;3.93;;;;;;;21.39;60.66;103125.06;5092071;28;20301;-80
2021/08/24 09:21:46;;;;;;;7.03;3.90;;;;;;;21.67;59.41;103113.38;5092347;28;20615;-80
2021/08/24 09:24:14;;;;;;;6.83;3.50;;;;;;;22.40;57.39;103117.19;5092586;28;20218;-81
2021/08/24 09:26:52;;;;;;;7.30;4.43;;;;;;;22.89;55.68;103115.56;5092040;28;20210;-80
2021/08/24 09:29:22;;;;;;;7.67;3.93;;;;;;;22.87;56.44;103118.53;5090928;28;20218;-80
2021/08/24 09:31:49;;;;;;;6.37;3.70;;;;;;;22.09;59.85;103122.09;5092690;28;20258;-80
2021/08/24 09:34:18;;;;;;;4.93;4.00;;;;;;;21.73;58.64;103120.59;5090774;28;20259;-81
2021/08/24 09:36:44;;;;;;;5.67;4.00;;;;;;;21.13;60.07;103120.94;5091741;28;20205;-80
2021/08/24 09:39:11;;;;;;;5.97;3.87;;;;;;;22.07;57.39;103120.69;5090038;28;20602;-80
2021/08/24 09:41:39;;;;;;;4.77;3.70;;;;;;;23.05;54.66;103116.59;5091563;28;20248;-80
2021/08/24 09:44:22;;;;;;;4.33;3.03;;;;;;;22.98;54.64;103108.56;5094155;28;20210;-80
2021/08/24 09:46:50;;;;;;;5.17;3.13;;;;;;;22.63;54.03;103103.41;5091877;28;20215;-81
2021/08/24 09:49:31;;;;;;;5.60;3.40;;;;;;;23.14;53.15;103109.63;5091991;28;20210;-81
2021/08/24 09:52:00;;;;;;;7.00;4.00;;;;;;;23.62;51.95;103105.31;5092305;28;20218;-81
2021/08/24 09:54:30;;;;;;;6.03;3.43;;;;;;;23.41;52.94;103098.78;5089734;28;20238;-81
2021/08/24 09:56:59;;;;;;;7.23;3.60;;;;;;;23.06;54.09;103093.69;5090656;28;20304;-81
2021/08/24 09:59:31;;;;;;;8.30;4.10;;;;;;;23.34;53.02;103096.22;5090384;28;20802;-81
2021/08/24 10:01:58;;;;;;;9.30;3.77;;;;;;;23.67;52.01;103098.03;5091918;28;20288;-81
2021/08/24 10:04:25;;;;;;;8.03;3.70;;;;;;;24.53;49.79;103108.16;5095346;28;20226;-82
2021/08/24 10:06:58;;;;;;;4.90;4.00;;;;;;;24.30;49.13;103107.41;5088267;28;20287;-82
2021/08/24 10:09:28;;;;;;;4.93;3.80;;;;;;;24.24;49.60;103102.13;5089499;28;20292;-82
2021/08/24 10:12:13;;;;;;;7.23;3.90;;;;;;;23.23;51.36;103108.09;5090003;28;20216;-81
2021/08/24 10:14:41;;;;;;;8.20;5.00;;;;;;;22.53;55.47;103108.69;5089835;28;20261;-82
2021/08/24 10:17:12;;;;;;;6.27;3.30;;;;;;;22.67;52.34;103099.09;5089898;28;20210;-81
2021/08/24 10:19:42;;;;;;;7.00;4.43;;;;;;;22.48;54.33;103101.25;5087057;28;20252;-82
2021/08/24 10:22:10;;;;;;;5.93;4.50;;;;;;;23.69;52.37;103087.66;5094088;28;20214;-82
2021/08/24 10:24:39;;;;;;;6.27;4.23;;;;;;;24.17;50.56;103093.34;5091420;28;20220;-80
2021/08/24 10:27:08;;;;;;;5.47;3.60;;;;;;;22.87;53.81;103091.28;5092835;28;20214;-80
2021/08/24 10:29:37;;;;;;;5.53;4.00;;;;;;;22.44;53.85;103091.09;5092612;28;20240;-82
2021/08/24 10:32:06;;;;;;;5.93;3.37;;;;;;;22.38;55.73;103092.09;5094024;28;20284;-82
2021/08/24 10:34:35;;;;;;;4.63;3.00;;;;;;;23.61;51.89;103090.03;5095710;28;20287;-82
2021/08/24 10:37:31;;;;;;;3.63;2.70;;;;;;;25.01;48.50;103087.13;5092703;28;20216;-82
2021/08/24 10:40:19;;;;;;;4.50;4.03;;;;;;;23.58;52.24;103093.28;5089735;28;20222;-82
2021/08/24 10:43:00;;;;;;;6.77;3.50;;;;;;;24.52;49.00;103087.34;5090521;28;20768;-82
2021/08/24 10:45:29;;;;;;;5.67;3.40;;;;;;;24.32;48.92;103082.56;5090447;28;20199;-82
2021/08/24 10:47:58;;;;;;;5.93;3.73;;;;;;;23.65;51.16;103072.91;5091883;28;20216;-82
2021/08/24 10:50:37;;;;;;;6.67;3.53;;;;;;;23.92;50.96;103072.91;5091341;28;20684;-82
2021/08/24 10:53:06;;;;;;;4.47;3.30;;;;;;;23.37;53.19;103075.78;5092881;28;21102;-82
2021/08/24 10:55:35;;;;;;;5.10;3.63;;;;;;;22.93;52.75;103078.53;5091907;28;20215;-82
2021/08/24 10:58:06;;;;;;;5.17;3.17;;;;;;;23.70;50.15;103072.13;5091962;28;20218;-82
2021/08/24 11:00:43;;;;;;;7.03;3.13;;;;;;;24.10;49.23;103066.22;5093858;28;20258;-82
2021/08/24 11:03:26;;;;;;;4.60;3.50;;;;;;;23.88;49.54;103055.34;5091936;28;20352;-83
2021/08/24 11:05:56;;;;;;;5.97;3.20;;;;;;;24.73;47.71;103056.31;5093833;28;20679;-83
2021/08/24 11:08:30;;;;;;;5.50;3.10;;;;;;;23.94;49.30;103058.97;5092828;28;20670;-83
2021/08/24 11:11:01;;;;;;;5.10;3.27;;;;;;;23.55;49.33;103063.75;5091055;28;20209;-82
2021/08/24 11:13:38;;;;;;;4.10;3.10;;;;;;;23.63;51.52;103060.56;5090347;28;20224;-82
2021/08/24 11:16:16;;;;;;;4.27;3.10;;;;;;;22.98;52.47;103054.03;5087113;28;20196;-82
2021/08/24 11:18:49;;;;;;;4.53;2.90;;;;;;;22.77;52.07;103055.66;5086702;28;20261;-82
2021/08/24 11:21:26;;;;;;;5.00;2.40;;;;;;;23.98;49.83;103058.19;5090398;28;20215;-82
2021/08/24 11:24:02;;;;;;;6.83;2.87;;;;;;;25.03;45.44;103046.66;5087153;28;20230;-82